Time;durP1;ratioP1;P1;durP2;ratioP2;P2;SDS_P1;SDS_P2;PMS_P1;PMS_P2;Temp;Humidity;BMP_temperature;BMP_pressure;BME280_temperature;BME280_humidity;BME280_pressure;Samples;Min_cycle;Max_cycle;Signal;HPM_P1;HPM_P2
2022/11/26 00:01:40;;;;;;;3.78;3.67;;;8.30;99.90;;;;;;4233093;28;20306;-84
2022/11/26 00:04:02;;;;;;;3.53;3.40;;;8.30;99.90;;;;;;4209580;28;20048;-84
2022/11/26 00:06:32;;;;;;;3.95;3.85;;;8.30;99.90;;;;;;4216846;28;20052;-84
2022/11/26 00:08:52;;;;;;;5.45;5.25;;;8.40;99.90;;;;;;4234017;28;20054;-84
2022/11/26 00:11:15;;;;;;;4.78;4.68;;;8.50;99.90;;;;;;4234734;28;20051;-84
2022/11/26 00:13:35;;;;;;;5.18;4.90;;;8.60;99.90;;;;;;4218574;28;20174;-83
2022/11/26 00:15:55;;;;;;;6.45;5.60;;;8.60;99.90;;;;;;4226748;28;20106;-84
2022/11/26 00:18:16;;;;;;;5.38;5.28;;;8.60;99.90;;;;;;4230907;28;20162;-84
2022/11/26 00:20:36;;;;;;;5.53;5.30;;;8.60;99.90;;;;;;4219242;28;20075;-84
2022/11/26 00:23:01;;;;;;;5.45;5.00;;;8.60;99.90;;;;;;4228639;28;20046;-84
2022/11/26 00:25:32;;;;;;;5.85;5.60;;;8.40;99.90;;;;;;4216348;28;20090;-84
2022/11/26 00:27:56;;;;;;;5.95;5.80;;;8.40;99.90;;;;;;4216250;28;20059;-84
2022/11/26 00:30:22;;;;;;;6.43;6.22;;;8.40;99.90;;;;;;4231083;28;20226;-84
2022/11/26 00:32:42;;;;;;;6.63;6.32;;;8.40;99.90;;;;;;4230140;28;20049;-84
2022/11/26 00:35:02;;;;;;;5.80;5.70;;;8.30;99.90;;;;;;4214556;28;20062;-84
2022/11/26 00:37:29;;;;;;;6.40;6.20;;;8.30;99.90;;;;;;4229412;28;20365;-84
2022/11/26 00:39:50;;;;;;;5.70;5.50;;;8.30;99.90;;;;;;4225892;28;20039;-84
2022/11/26 00:42:10;;;;;;;6.90;6.50;;;8.30;99.90;;;;;;4230470;28;20046;-84
2022/11/26 00:44:31;;;;;;;7.28;6.88;;;8.40;99.90;;;;;;4213714;28;20059;-84
2022/11/26 00:46:51;;;;;;;5.65;5.55;;;8.40;99.90;;;;;;4214370;28;20051;-84
2022/11/26 00:49:11;;;;;;;6.40;6.07;;;8.40;99.90;;;;;;4214316;28;20051;-84
2022/11/26 00:51:31;;;;;;;5.25;5.05;;;8.40;99.90;;;;;;4217202;28;20070;-84
2022/11/26 00:53:54;;;;;;;5.95;5.63;;;8.40;99.90;;;;;;4214022;28;20474;-84
2022/11/26 00:56:15;;;;;;;;;;;8.40;99.90;;;;;;4232277;28;20055;-84
2022/11/26 00:58:35;;;;;;;5.50;5.30;;;8.30;99.90;;;;;;4218572;28;19923;-84
2022/11/26 01:00:57;;;;;;;5.45;5.22;;;8.10;99.90;;;;;;4217511;28;20046;-84
2022/11/26 01:03:18;;;;;;;6.60;6.50;;;8.10;99.90;;;;;;4215688;28;20043;-84
2022/11/26 01:05:38;;;;;;;6.75;6.28;;;8.00;99.90;;;;;;4227469;28;20047;-84
2022/11/26 01:07:59;;;;;;;6.57;6.38;;;8.00;99.90;;;;;;4231881;28;20411;-84
2022/11/26 01:10:27;;;;;;;6.15;5.75;;;7.90;99.90;;;;;;4215398;28;20100;-84
2022/11/26 01:12:48;;;;;;;6.15;5.88;;;7.90;99.90;;;;;;4231781;28;20127;-84
2022/11/26 01:15:09;;;;;;;6.30;6.10;;;7.90;99.90;;;;;;4232070;28;20047;-84
2022/11/26 01:17:29;;;;;;;5.95;5.75;;;7.80;99.90;;;;;;4233249;28;20066;-84
2022/11/26 01:19:49;;;;;;;5.25;5.10;;;7.70;99.90;;;;;;4217208;28;20082;-84
2022/11/26 01:22:27;;;;;;;6.35;6.10;;;7.70;99.90;;;;;;4232689;28;20043;-84
2022/11/26 01:24:48;;;;;;;6.65;5.82;;;7.60;99.90;;;;;;4231642;28;20046;-84
2022/11/26 01:27:11;;;;;;;6.30;5.90;;;7.60;99.90;;;;;;4230877;28;20051;-84
2022/11/26 01:29:30;;;;;;;4.53;4.43;;;7.60;99.90;;;;;;4214642;28;20047;-83
2022/11/26 01:31:50;;;;;;;4.72;4.57;;;7.60;99.90;;;;;;4232260;28;20089;-84
2022/11/26 01:34:10;;;;;;;5.10;4.80;;;7.50;99.90;;;;;;4231755;28;20051;-84
2022/11/26 01:36:34;;;;;;;4.78;4.68;;;7.50;99.90;;;;;;4215586;28;20418;-84
2022/11/26 01:38:59;;;;;;;4.00;3.90;;;7.50;99.90;;;;;;4218562;28;20055;-83
2022/11/26 01:41:29;;;;;;;4.15;3.95;;;7.50;99.90;;;;;;4216756;28;20044;-84
2022/11/26 01:43:51;;;;;;;3.78;3.67;;;7.50;99.90;;;;;;4227806;28;20035;-84
2022/11/26 01:46:16;;;;;;;4.20;3.95;;;7.50;99.90;;;;;;4215900;28;20055;-83
2022/11/26 01:48:37;;;;;;;3.22;3.08;;;7.50;99.90;;;;;;4228524;28;20069;-84
2022/11/26 01:51:05;;;;;;;3.28;3.28;;;7.50;99.90;;;;;;4229518;28;20047;-84
2022/11/26 01:53:50;;;;;;;4.75;4.00;;;7.40;99.90;;;;;;4232006;28;20034;-84
2022/11/26 01:56:19;;;;;;;3.63;3.53;;;7.40;99.90;;;;;;4230887;28;20042;-84
2022/11/26 01:58:48;;;;;;;3.80;3.70;;;7.40;99.90;;;;;;4216513;28;20044;-84
2022/11/26 02:01:09;;;;;;;4.07;3.83;;;7.40;99.90;;;;;;4228215;28;20086;-84
2022/11/26 02:03:33;;;;;;;4.80;4.43;;;7.30;99.90;;;;;;4223189;28;20036;-84
2022/11/26 02:06:03;;;;;;;3.97;3.78;;;7.30;99.90;;;;;;4212921;28;20038;-84
2022/11/26 02:08:25;;;;;;;4.97;4.82;;;7.30;99.90;;;;;;4212205;28;20062;-84
2022/11/26 02:10:45;;;;;;;4.80;4.53;;;7.30;99.90;;;;;;4230489;28;20243;-84
2022/11/26 02:13:05;;;;;;;6.18;5.70;;;7.30;99.90;;;;;;4228739;28;20444;-83
2022/11/26 02:15:34;;;;;;;5.25;5.05;;;7.30;99.90;;;;;;4216409;28;20114;-84
2022/11/26 02:18:04;;;;;;;5.45;5.30;;;7.40;99.90;;;;;;4219505;28;20043;-84
2022/11/26 02:20:58;;;;;;;5.47;5.28;;;7.40;99.90;;;;;;4223325;28;20231;-84
2022/11/26 02:23:32;;;;;;;6.28;5.88;;;7.40;99.90;;;;;;4229270;28;20231;-84
2022/11/26 02:26:26;;;;;;;6.70;6.22;;;7.40;99.90;;;;;;4229553;28;20263;-84
2022/11/26 02:29:07;;;;;;;6.57;6.13;;;7.40;99.90;;;;;;4229680;28;20077;-83
2022/11/26 02:31:49;;;;;;;6.25;5.90;;;7.40;99.90;;;;;;4228411;28;20381;-84
2022/11/26 02:34:55;;;;;;;6.47;6.18;;;7.40;99.90;;;;;;4229061;28;20273;-84
2022/11/26 02:37:24;;;;;;;5.97;5.75;;;7.30;99.90;;;;;;4222238;28;20070;-84
2022/11/26 02:39:45;;;;;;;6.80;6.53;;;7.30;99.90;;;;;;4226179;28;20039;-84
2022/11/26 02:42:29;;;;;;;5.45;5.25;;;7.30;99.90;;;;;;4229728;28;20086;-84
2022/11/26 02:44:49;;;;;;;6.90;6.40;;;7.30;99.90;;;;;;4218368;28;20111;-84
2022/11/26 02:47:11;;;;;;;6.53;6.20;;;7.30;99.90;;;;;;4230849;28;20046;-84
2022/11/26 02:49:33;;;;;;;6.78;6.43;;;7.20;99.90;;;;;;4232713;28;20070;-84
2022/11/26 02:51:57;;;;;;;5.63;5.43;;;7.20;99.90;;;;;;4221357;28;20052;-84
2022/11/26 02:54:18;;;;;;;6.65;6.45;;;7.20;99.90;;;;;;4218373;28;20055;-84
2022/11/26 02:56:40;;;;;;;6.32;6.10;;;7.30;99.90;;;;;;4215490;28;20047;-84
2022/11/26 02:59:00;;;;;;;7.53;7.22;;;7.20;99.90;;;;;;4229743;28;20076;-84
2022/11/26 03:01:30;;;;;;;7.13;6.93;;;7.20;99.90;;;;;;4214791;28;20397;-84
2022/11/26 03:03:52;;;;;;;7.35;7.15;;;7.20;99.90;;;;;;4221989;28;20281;-84
2022/11/26 03:06:13;;;;;;;8.10;8.00;;;7.30;99.90;;;;;;4228789;28;20046;-84
2022/11/26 03:08:34;;;;;;;7.65;7.28;;;7.30;99.90;;;;;;4228981;28;20073;-84
2022/11/26 03:10:55;;;;;;;7.40;7.10;;;7.20;99.90;;;;;;4215365;28;20060;-84
2022/11/26 03:13:15;;;;;;;7.43;7.22;;;7.20;99.90;;;;;;4218829;28;20055;-84
2022/11/26 03:15:34;;;;;;;8.20;7.80;;;7.20;99.90;;;;;;4219973;28;20079;-84
2022/11/26 03:17:54;;;;;;;8.07;7.88;;;7.10;99.90;;;;;;4230011;28;20036;-84
2022/11/26 03:20:15;;;;;;;8.13;7.80;;;7.10;99.90;;;;;;4215987;28;20052;-84
2022/11/26 03:22:35;;;;;;;8.02;7.80;;;7.10;99.90;;;;;;4217341;28;20050;-84
2022/11/26 03:24:55;;;;;;;8.68;8.18;;;7.10;99.90;;;;;;4230319;28;20080;-84
2022/11/26 03:27:15;;;;;;;7.95;7.65;;;7.10;99.90;;;;;;4231047;28;20230;-84
2022/11/26 03:29:35;;;;;;;8.60;8.02;;;7.20;99.90;;;;;;4232070;28;20047;-84
2022/11/26 03:31:55;;;;;;;7.60;7.35;;;7.20;99.90;;;;;;4216174;28;20117;-84
2022/11/26 03:34:15;;;;;;;8.25;7.93;;;7.10;99.90;;;;;;4217342;28;20082;-84
2022/11/26 03:36:35;;;;;;;8.45;8.10;;;7.10;99.90;;;;;;4217447;28;20059;-84
2022/11/26 03:38:55;;;;;;;7.70;7.40;;;7.10;99.90;;;;;;4231215;28;20115;-83
2022/11/26 03:41:15;;;;;;;6.57;6.38;;;7.10;99.90;;;;;;4216795;28;20051;-83
2022/11/26 03:43:34;;;;;;;6.68;6.53;;;7.20;99.90;;;;;;4233459;28;20321;-84
2022/11/26 03:45:54;;;;;;;6.97;6.53;;;7.20;99.90;;;;;;4231443;28;20066;-84
2022/11/26 03:48:14;;;;;;;6.80;6.68;;;7.30;99.90;;;;;;4229832;28;20050;-84
2022/11/26 03:50:34;;;;;;;6.15;6.00;;;7.40;99.90;;;;;;4232668;28;20054;-84
2022/11/26 03:52:53;;;;;;;5.72;5.50;;;7.60;99.90;;;;;;4231433;28;20070;-84
2022/11/26 03:55:14;;;;;;;5.40;5.30;;;7.70;99.90;;;;;;4232448;28;20085;-84
2022/11/26 03:57:33;;;;;;;6.72;6.43;;;7.70;99.90;;;;;;4231499;28;20039;-84
2022/11/26 03:59:53;;;;;;;6.53;6.22;;;7.60;99.90;;;;;;4216370;28;20081;-84
2022/11/26 04:02:13;;;;;;;5.90;5.63;;;7.60;99.90;;;;;;4235643;28;20145;-84
2022/11/26 04:04:33;;;;;;;5.43;5.22;;;7.80;99.90;;;;;;4216118;28;20112;-84
2022/11/26 04:06:53;;;;;;;5.22;5.13;;;8.20;99.90;;;;;;4217488;28;20262;-84
2022/11/26 04:09:13;;;;;;;5.00;4.80;;;8.30;99.90;;;;;;4229545;28;20055;-84
2022/11/26 04:11:32;;;;;;;4.88;4.78;;;8.30;99.90;;;;;;4229187;28;20054;-84
2022/11/26 04:13:52;;;;;;;8.23;7.82;;;8.20;99.90;;;;;;4224445;28;20350;-84
2022/11/26 04:16:12;;;;;;;6.50;6.35;;;8.00;99.90;;;;;;4218284;28;20160;-84
2022/11/26 04:18:32;;;;;;;5.40;5.18;;;8.00;99.90;;;;;;4232505;28;20054;-84
2022/11/26 04:20:52;;;;;;;4.50;4.28;;;7.90;99.90;;;;;;4229571;28;20051;-84
2022/11/26 04:23:13;;;;;;;5.95;4.90;;;8.10;99.90;;;;;;4232779;28;20085;-84
2022/11/26 04:25:33;;;;;;;5.00;4.70;;;8.20;99.90;;;;;;4215261;28;20055;-84
2022/11/26 04:27:53;;;;;;;4.60;4.50;;;8.20;99.90;;;;;;4231639;28;20370;-84
2022/11/26 04:30:14;;;;;;;5.57;5.28;;;8.30;99.90;;;;;;4221371;28;20090;-84
2022/11/26 04:32:35;;;;;;;5.90;5.53;;;8.20;99.90;;;;;;4237780;28;20108;-84
2022/11/26 04:34:55;;;;;;;6.68;5.65;;;8.00;99.90;;;;;;4231393;28;20055;-84
2022/11/26 04:37:15;;;;;;;5.55;5.35;;;8.10;99.90;;;;;;4217691;28;20079;-83
2022/11/26 04:39:35;;;;;;;5.70;5.60;;;8.00;99.90;;;;;;4230450;28;20713;-84
2022/11/26 04:41:55;;;;;;;5.80;5.50;;;8.40;99.90;;;;;;4220495;28;20394;-84
2022/11/26 04:44:15;;;;;;;5.65;5.55;;;8.80;99.90;;;;;;4231637;28;20051;-84
2022/11/26 04:46:35;;;;;;;5.13;4.82;;;8.80;99.90;;;;;;4230374;28;20057;-84
2022/11/26 04:48:55;;;;;;;5.88;5.65;;;8.80;99.90;;;;;;4229977;28;20078;-84
2022/11/26 04:51:15;;;;;;;4.72;4.53;;;8.70;99.90;;;;;;4218270;28;20087;-83
2022/11/26 04:53:34;;;;;;;5.93;5.63;;;8.60;99.90;;;;;;4231179;28;20441;-84
2022/11/26 04:55:54;;;;;;;6.53;6.03;;;8.50;99.90;;;;;;4227877;28;20047;-84
2022/11/26 04:58:15;;;;;;;5.07;4.85;;;8.20;99.90;;;;;;4226220;28;20136;-84
2022/11/26 05:00:35;;;;;;;6.05;5.85;;;8.20;99.90;;;;;;4232271;28;20100;-84
2022/11/26 05:02:54;;;;;;;5.63;5.43;;;8.40;99.90;;;;;;4226984;28;20042;-84
2022/11/26 05:05:15;;;;;;;5.85;5.75;;;8.70;99.90;;;;;;4216325;28;20273;-84
2022/11/26 05:07:34;;;;;;;5.50;5.30;;;8.70;99.90;;;;;;4218907;28;20047;-84
2022/11/26 05:09:54;;;;;;;5.93;5.82;;;8.80;99.90;;;;;;4232215;28;20273;-84
2022/11/26 05:12:14;;;;;;;5.20;5.10;;;8.70;99.90;;;;;;4215855;28;20087;-84
2022/11/26 05:14:34;;;;;;;5.68;5.40;;;8.70;99.90;;;;;;4231154;28;20167;-84
2022/11/26 05:16:54;;;;;;;5.78;5.43;;;8.60;99.90;;;;;;4231368;28;20066;-84
2022/11/26 05:19:14;;;;;;;6.15;5.95;;;8.50;99.90;;;;;;4217757;28;20413;-84
2022/11/26 05:21:34;;;;;;;7.88;7.30;;;8.40;99.90;;;;;;4214883;28;20247;-84
2022/11/26 05:23:54;;;;;;;5.90;5.80;;;8.40;99.90;;;;;;4228820;28;20035;-84
2022/11/26 05:26:14;;;;;;;7.20;7.00;;;8.50;99.90;;;;;;4231192;28;20054;-84
2022/11/26 05:28:34;;;;;;;9.77;9.40;;;8.60;99.90;;;;;;4217047;28;20082;-84
2022/11/26 05:31:02;;;;;;;8.88;8.48;;;8.80;99.90;;;;;;4223765;28;20046;-84
2022/11/26 05:33:22;;;;;;;8.38;7.95;;;8.70;99.90;;;;;;4223236;28;20805;-84
2022/11/26 05:35:42;;;;;;;10.15;9.68;;;8.60;99.90;;;;;;4231445;28;20368;-84
2022/11/26 05:38:02;;;;;;;10.60;10.10;;;8.50;99.90;;;;;;4230285;28;20043;-84
2022/11/26 05:40:22;;;;;;;10.50;10.00;;;8.40;99.90;;;;;;4230785;28;20050;-84
2022/11/26 05:42:42;;;;;;;10.70;9.88;;;8.40;99.90;;;;;;4230546;28;20085;-84
2022/11/26 05:45:03;;;;;;;10.10;9.65;;;8.40;99.90;;;;;;4226839;28;20182;-84
2022/11/26 05:47:22;;;;;;;8.05;7.78;;;8.40;99.90;;;;;;4217130;28;20421;-84
2022/11/26 05:49:42;;;;;;;8.93;8.38;;;8.40;99.90;;;;;;4231638;28;20137;-84
2022/11/26 05:52:01;;;;;;;10.30;9.55;;;8.40;99.90;;;;;;4228593;28;20047;-84
2022/11/26 05:54:21;;;;;;;9.10;8.60;;;8.50;99.90;;;;;;4229466;28;20088;-84
2022/11/26 05:56:42;;;;;;;10.15;9.48;;;8.50;99.90;;;;;;4233004;28;20042;-84
2022/11/26 05:59:02;;;;;;;9.20;8.85;;;8.40;99.90;;;;;;4231308;28;20043;-84
2022/11/26 06:01:22;;;;;;;10.13;9.65;;;8.30;99.90;;;;;;4231624;28;20162;-84
2022/11/26 06:03:41;;;;;;;9.02;8.73;;;8.40;99.90;;;;;;4215582;28;20119;-84
2022/11/26 06:06:02;;;;;;;9.00;8.73;;;8.50;99.90;;;;;;4226181;28;20122;-84
2022/11/26 06:08:22;;;;;;;9.63;9.02;;;8.80;99.90;;;;;;4230102;28;20242;-84
2022/11/26 06:10:43;;;;;;;8.23;7.90;;;8.80;99.90;;;;;;4212471;28;20043;-84
2022/11/26 06:13:03;;;;;;;9.73;9.07;;;8.80;99.90;;;;;;4229301;28;20051;-84
2022/11/26 06:15:23;;;;;;;9.52;9.10;;;8.70;99.90;;;;;;4232395;28;20055;-84
2022/11/26 06:17:43;;;;;;;8.55;8.25;;;8.60;99.90;;;;;;4228344;28;20050;-84
2022/11/26 06:20:04;;;;;;;8.45;8.15;;;8.70;99.90;;;;;;4230965;28;20046;-84
2022/11/26 06:22:23;;;;;;;8.27;8.07;;;8.80;99.90;;;;;;4215031;28;20384;-83
2022/11/26 06:24:43;;;;;;;8.18;7.90;;;8.80;99.90;;;;;;4231620;28;20353;-84
2022/11/26 06:27:03;;;;;;;8.20;7.78;;;8.70;99.90;;;;;;4216359;28;20110;-84
2022/11/26 06:29:24;;;;;;;8.20;7.90;;;8.70;99.90;;;;;;4221725;28;20296;-84
2022/11/26 06:31:47;;;;;;;8.35;8.25;;;8.80;99.90;;;;;;4229265;28;20105;-84
2022/11/26 06:34:07;;;;;;;7.70;7.50;;;8.80;99.90;;;;;;4215760;28;20070;-84
2022/11/26 06:36:27;;;;;;;7.57;7.30;;;8.70;99.90;;;;;;4219036;28;20069;-84
2022/11/26 06:38:47;;;;;;;6.70;6.50;;;8.60;99.90;;;;;;4230366;28;20105;-84
2022/11/26 06:41:07;;;;;;;5.43;5.30;;;8.50;99.90;;;;;;4215733;28;20082;-84
2022/11/26 06:43:28;;;;;;;4.40;4.30;;;8.60;99.90;;;;;;4228452;28;20102;-84
2022/11/26 06:45:47;;;;;;;4.18;4.07;;;8.60;99.90;;;;;;4229728;28;20047;-84
2022/11/26 06:48:08;;;;;;;3.78;3.67;;;8.60;99.90;;;;;;4227823;28;20088;-84
2022/11/26 06:50:28;;;;;;;4.38;4.28;;;8.60;99.90;;;;;;4232117;28;20077;-84
2022/11/26 06:52:53;;;;;;;2.78;2.67;;;8.70;99.90;;;;;;4228798;28;20043;-84
2022/11/26 06:55:14;;;;;;;2.58;2.58;;;8.70;99.90;;;;;;4229552;28;20055;-84
2022/11/26 06:57:33;;;;;;;2.53;2.53;;;8.80;99.90;;;;;;4230948;28;20078;-83
2022/11/26 06:59:53;;;;;;;2.95;2.95;;;8.80;99.90;;;;;;4227033;28;20063;-83
2022/11/26 07:02:13;;;;;;;2.40;2.40;;;8.80;99.90;;;;;;4231498;28;20035;-84
2022/11/26 07:04:33;;;;;;;3.38;3.17;;;8.70;99.90;;;;;;4232982;28;20058;-84
2022/11/26 07:06:53;;;;;;;3.38;3.28;;;8.70;99.90;;;;;;4215822;28;20047;-84
2022/11/26 07:09:13;;;;;;;3.15;3.15;;;8.70;99.90;;;;;;4232441;28;20123;-84
2022/11/26 07:11:33;;;;;;;3.95;3.85;;;8.70;99.90;;;;;;4232630;28;20357;-84
2022/11/26 07:13:53;;;;;;;4.13;4.13;;;8.60;99.90;;;;;;4232999;28;20035;-84
2022/11/26 07:16:13;;;;;;;4.22;4.13;;;8.70;99.90;;;;;;4232062;28;20042;-84
2022/11/26 07:18:34;;;;;;;5.25;5.15;;;8.70;99.90;;;;;;4217432;28;20051;-84
2022/11/26 07:20:54;;;;;;;5.00;4.90;;;8.70;99.90;;;;;;4217206;28;20082;-84
2022/11/26 07:23:13;;;;;;;4.65;4.55;;;8.80;99.90;;;;;;4233667;28;20085;-84
2022/11/26 07:25:33;;;;;;;3.65;3.55;;;8.70;99.90;;;;;;4231117;28;20050;-84
2022/11/26 07:27:52;;;;;;;3.92;3.83;;;8.80;99.90;;;;;;4216659;28;20044;-84
2022/11/26 07:30:13;;;;;;;3.42;3.42;;;8.90;99.90;;;;;;4232288;28;20063;-84
2022/11/26 07:32:33;;;;;;;3.75;3.65;;;8.90;99.90;;;;;;4231092;28;20156;-85
2022/11/26 07:34:52;;;;;;;4.50;4.40;;;9.00;99.90;;;;;;4216556;28;20649;-84
2022/11/26 07:37:12;;;;;;;3.10;3.10;;;9.00;99.90;;;;;;4218134;28;20043;-84
2022/11/26 07:39:32;;;;;;;5.43;5.32;;;9.00;99.90;;;;;;4220073;28;20051;-84
2022/11/26 07:41:52;;;;;;;4.03;3.92;;;9.00;99.90;;;;;;4232369;28;20051;-84
2022/11/26 07:44:13;;;;;;;2.72;2.72;;;9.10;99.90;;;;;;4224025;28;20094;-84
2022/11/26 07:46:33;;;;;;;3.45;3.45;;;9.10;99.90;;;;;;4216295;28;20070;-84
2022/11/26 07:48:55;;;;;;;3.60;3.50;;;9.10;99.90;;;;;;4234122;28;20038;-84
2022/11/26 07:51:18;;;;;;;3.28;3.28;;;9.10;99.90;;;;;;4218756;28;20055;-84
2022/11/26 07:53:38;;;;;;;2.97;2.97;;;9.20;99.90;;;;;;4227568;28;20393;-84
2022/11/26 07:55:58;;;;;;;3.42;3.22;;;9.30;99.90;;;;;;4219121;28;20047;-84
2022/11/26 07:58:18;;;;;;;6.57;6.38;;;9.30;99.90;;;;;;4220001;28;20039;-84
2022/11/26 08:00:38;;;;;;;2.67;2.47;;;9.40;99.90;;;;;;4231880;28;20055;-84
2022/11/26 08:02:58;;;;;;;2.17;2.17;;;9.50;99.90;;;;;;4217709;28;20075;-84
2022/11/26 08:05:18;;;;;;;1.70;1.70;;;9.50;99.90;;;;;;4224187;28;20042;-84
2022/11/26 08:07:38;;;;;;;2.15;2.15;;;9.60;99.90;;;;;;4233675;28;20039;-84
2022/11/26 08:09:58;;;;;;;1.80;1.80;;;9.60;99.90;;;;;;4218806;28;20067;-84
2022/11/26 08:12:17;;;;;;;2.60;2.60;;;9.50;99.90;;;;;;4217936;28;20051;-84
2022/11/26 08:14:37;;;;;;;2.72;2.70;;;9.40;99.90;;;;;;4218034;28;20050;-84
2022/11/26 08:16:58;;;;;;;2.60;2.60;;;9.30;99.90;;;;;;4225076;28;20042;-85
2022/11/26 08:19:18;;;;;;;2.50;2.40;;;9.30;99.90;;;;;;4217544;28;20087;-84
2022/11/26 08:21:38;;;;;;;2.13;2.13;;;9.20;99.90;;;;;;4229579;28;20082;-85
2022/11/26 08:23:58;;;;;;;2.45;2.45;;;9.10;99.90;;;;;;4230653;28;20098;-84
2022/11/26 08:26:19;;;;;;;2.78;2.75;;;9.10;99.90;;;;;;4224141;28;20055;-84
2022/11/26 08:28:50;;;;;;;2.08;2.08;;;9.10;99.90;;;;;;4234129;28;20043;-85
2022/11/26 08:31:13;;;;;;;2.58;2.58;;;9.10;99.90;;;;;;4218807;28;20059;-84
2022/11/26 08:33:33;;;;;;;2.90;2.90;;;9.10;99.90;;;;;;4215965;28;20119;-85
2022/11/26 08:35:54;;;;;;;3.30;3.30;;;9.10;99.90;;;;;;4218952;28;20117;-85
2022/11/26 08:38:29;;;;;;;2.45;2.45;;;9.10;99.90;;;;;;4231176;28;20084;-85
2022/11/26 08:40:48;;;;;;;2.55;2.55;;;9.20;99.90;;;;;;4215783;28;20087;-84
2022/11/26 08:43:08;;;;;;;2.47;2.47;;;9.20;99.90;;;;;;4230319;28;20035;-85
2022/11/26 08:45:28;;;;;;;2.45;2.45;;;9.30;99.90;;;;;;4229258;28;20100;-85
2022/11/26 08:47:48;;;;;;;3.17;3.15;;;9.30;99.90;;;;;;4234798;28;20326;-85
2022/11/26 08:50:08;;;;;;;2.70;2.60;;;9.30;99.90;;;;;;4228552;28;20098;-85
2022/11/26 08:52:28;;;;;;;2.95;2.95;;;9.30;99.90;;;;;;4217986;28;20163;-84
2022/11/26 08:54:48;;;;;;;2.60;2.58;;;9.30;99.90;;;;;;4232256;28;20099;-84
2022/11/26 08:57:08;;;;;;;2.22;2.13;;;9.30;99.90;;;;;;4216014;28;20040;-84
2022/11/26 08:59:28;;;;;;;1.85;1.85;;;9.10;99.90;;;;;;4215471;28;20097;-84
2022/11/26 09:01:48;;;;;;;2.88;2.78;;;9.10;99.90;;;;;;4218313;28;20161;-85
2022/11/26 09:04:08;;;;;;;3.50;3.45;;;9.10;99.90;;;;;;4228898;28;20046;-85
2022/11/26 09:06:30;;;;;;;3.40;3.40;;;9.20;99.90;;;;;;4216200;28;20052;-85
2022/11/26 09:11:35;;;;;;;2.60;2.50;;;9.10;99.90;;;;;;4232724;28;20093;-85
2022/11/26 09:13:56;;;;;;;2.83;2.83;;;9.10;99.90;;;;;;4230769;28;20044;-85
2022/11/26 09:16:16;;;;;;;3.72;3.63;;;9.20;99.90;;;;;;4215417;28;20076;-85
2022/11/26 09:18:36;;;;;;;3.80;3.67;;;9.20;99.90;;;;;;4230097;28;20039;-85
2022/11/26 09:21:01;;;;;;;2.58;2.58;;;9.20;99.90;;;;;;4217763;28;20416;-85
2022/11/26 09:23:21;;;;;;;2.70;2.70;;;9.10;99.90;;;;;;4229539;28;20280;-84
2022/11/26 09:25:41;;;;;;;2.90;2.80;;;9.00;99.90;;;;;;4231587;28;20110;-85
2022/11/26 09:28:00;;;;;;;3.22;3.17;;;9.00;99.90;;;;;;4219065;28;20246;-86
2022/11/26 09:30:20;;;;;;;2.25;2.25;;;9.00;99.90;;;;;;4229563;28;20121;-85
2022/11/26 09:32:39;;;;;;;3.13;3.00;;;8.90;99.90;;;;;;4222431;28;20054;-84
2022/11/26 09:34:59;;;;;;;2.35;2.35;;;8.90;99.90;;;;;;4230417;28;20234;-85
2022/11/26 09:37:19;;;;;;;2.10;2.10;;;8.80;99.90;;;;;;4227246;28;20093;-85
2022/11/26 09:39:39;;;;;;;3.00;2.90;;;8.80;99.90;;;;;;4229078;28;20234;-86
2022/11/26 09:42:07;;;;;;;2.20;2.20;;;8.80;99.90;;;;;;4230792;28;20046;-84
2022/11/26 09:44:54;;;;;;;2.40;2.40;;;8.80;99.90;;;;;;4232293;28;20358;-85
2022/11/26 09:47:15;;;;;;;1.88;1.88;;;8.70;99.90;;;;;;4216061;28;20051;-85
2022/11/26 09:49:46;;;;;;;3.00;3.00;;;8.80;99.90;;;;;;4216428;28;20097;-85
2022/11/26 09:52:08;;;;;;;3.92;3.70;;;8.70;99.90;;;;;;4218904;28;20056;-84
2022/11/26 09:54:29;;;;;;;4.25;4.15;;;8.70;99.90;;;;;;4218469;28;20059;-85
2022/11/26 09:56:53;;;;;;;2.20;2.08;;;8.70;99.90;;;;;;4227537;28;20273;-85
2022/11/26 09:59:18;;;;;;;3.17;3.17;;;8.60;99.90;;;;;;4230109;28;20042;-85
2022/11/26 10:01:41;;;;;;;5.45;5.25;;;8.60;99.90;;;;;;4218852;28;20047;-85
2022/11/26 10:04:04;;;;;;;4.95;4.85;;;8.50;99.90;;;;;;4230452;28;20226;-84
2022/11/26 10:06:43;;;;;;;4.88;4.50;;;8.60;99.90;;;;;;4229449;28;20107;-84
2022/11/26 10:09:23;;;;;;;5.97;5.78;;;8.60;99.90;;;;;;4231450;28;20047;-84
2022/11/26 10:11:51;;;;;;;6.45;6.35;;;8.60;99.90;;;;;;4219723;28;20051;-84
2022/11/26 10:14:43;;;;;;;5.45;5.18;;;8.60;99.90;;;;;;4215823;28;20393;-85
2022/11/26 10:17:36;;;;;;;7.43;6.88;;;8.60;99.90;;;;;;4209091;28;20114;-84
2022/11/26 10:20:20;;;;;;;7.78;7.57;;;8.70;99.90;;;;;;4231365;28;20384;-84
2022/11/26 10:23:12;;;;;;;5.72;5.43;;;8.60;99.90;;;;;;4227935;28;20047;-85
2022/11/26 10:25:45;;;;;;;4.90;4.80;;;8.60;99.90;;;;;;4208868;28;20047;-84
2022/11/26 10:28:48;;;;;;;5.47;5.28;;;8.60;99.90;;;;;;4226964;28;20039;-84
2022/11/26 10:31:24;;;;;;;4.13;4.03;;;8.60;99.90;;;;;;4230189;28;20261;-84
2022/11/26 10:33:56;;;;;;;3.30;3.20;;;8.70;99.90;;;;;;4214295;28;20077;-84
2022/11/26 10:36:31;;;;;;;5.25;5.15;;;8.70;99.90;;;;;;4229644;28;20078;-84
2022/11/26 10:38:54;;;;;;;5.25;5.05;;;8.60;99.90;;;;;;4229509;28;20104;-84
2022/11/26 10:41:15;;;;;;;6.57;6.45;;;8.70;99.90;;;;;;4217317;28;20365;-84
2022/11/26 10:43:35;;;;;;;5.30;5.20;;;8.90;99.90;;;;;;4229232;28;20070;-84
2022/11/26 10:45:56;;;;;;;5.13;5.00;;;8.90;99.90;;;;;;4221362;28;20055;-84
2022/11/26 10:48:23;;;;;;;10.15;9.75;;;8.90;99.90;;;;;;4216633;28;20074;-84
2022/11/26 10:50:54;;;;;;;5.25;5.15;;;9.00;99.90;;;;;;4216667;28;20055;-84
2022/11/26 10:53:24;;;;;;;3.78;3.67;;;9.10;99.90;;;;;;4229003;28;20043;-84
2022/11/26 10:55:44;;;;;;;2.78;2.78;;;9.20;99.90;;;;;;4215444;28;20059;-84
2022/11/26 10:58:16;;;;;;;3.08;2.90;;;9.20;99.90;;;;;;4228674;28;20293;-84
2022/11/26 11:01:06;;;;;;;1.73;1.73;;;9.20;99.90;;;;;;4224904;28;20124;-84
2022/11/26 11:03:45;;;;;;;1.92;1.92;;;9.00;99.90;;;;;;4178887;28;20076;-84
2022/11/26 11:06:34;;;;;;;1.70;1.70;;;9.00;99.90;;;;;;4167375;28;20240;-83
2022/11/26 11:08:54;;;;;;;3.92;3.22;;;9.20;99.90;;;;;;4177635;28;20112;-84
2022/11/26 11:11:21;;;;;;;2.67;2.58;;;9.30;99.90;;;;;;4177872;28;20354;-84
2022/11/26 11:13:43;;;;;;;1.77;1.77;;;9.30;99.90;;;;;;4166225;28;20049;-84
2022/11/26 11:16:03;;;;;;;2.13;2.13;;;9.40;99.90;;;;;;4179005;28;20114;-84
2022/11/26 11:18:23;;;;;;;3.28;3.17;;;9.40;99.90;;;;;;4178943;28;20114;-83
2022/11/26 11:20:55;;;;;;;2.70;2.67;;;9.60;99.90;;;;;;4180927;28;20393;-84
2022/11/26 11:23:15;;;;;;;3.22;3.20;;;9.70;99.90;;;;;;4177293;28;20103;-84
2022/11/26 11:25:38;;;;;;;2.92;2.83;;;9.70;99.90;;;;;;4162656;28;20057;-84
2022/11/26 11:28:03;;;;;;;5.50;5.30;;;9.70;99.90;;;;;;4165644;28;20076;-84
2022/11/26 11:30:35;;;;;;;4.30;4.20;;;9.80;99.90;;;;;;4167743;28;20045;-84
2022/11/26 11:32:56;;;;;;;9.85;9.35;;;9.80;99.90;;;;;;4180588;28;20078;-84
2022/11/26 11:35:19;;;;;;;2.58;2.47;;;9.90;99.90;;;;;;4177961;28;20051;-84
2022/11/26 11:38:00;;;;;;;7.30;6.80;;;9.80;99.90;;;;;;4177330;28;20043;-84
2022/11/26 11:40:26;;;;;;;11.82;11.23;;;9.90;99.90;;;;;;4219868;28;20039;-84
2022/11/26 11:43:02;;;;;;;9.20;8.80;;;9.70;99.90;;;;;;4215306;28;20117;-84
2022/11/26 11:45:39;;;;;;;7.10;6.90;;;9.90;99.90;;;;;;4230593;28;20038;-84
2022/11/26 11:48:42;;;;;;;7.22;6.72;;;9.90;99.90;;;;;;4214197;28;20083;-84
2022/11/26 11:51:25;;;;;;;6.93;6.57;;;10.00;99.90;;;;;;4219318;28;20258;-84
2022/11/26 11:53:51;;;;;;;5.28;4.97;;;9.90;99.90;;;;;;4220376;28;20246;-84
2022/11/26 11:56:16;;;;;;;5.55;5.35;;;9.90;99.90;;;;;;4224470;28;20071;-84
2022/11/26 11:59:02;;;;;;;5.90;5.75;;;9.80;99.90;;;;;;4233970;28;20082;-84
2022/11/26 12:01:34;;;;;;;6.07;5.97;;;9.70;99.90;;;;;;4224943;28;20085;-83
2022/11/26 12:04:15;;;;;;;6.05;5.85;;;9.60;99.90;;;;;;4220523;28;20238;-84
2022/11/26 12:07:18;;;;;;;5.57;5.28;;;9.90;99.90;;;;;;4232106;28;20108;-84
2022/11/26 12:09:56;;;;;;;4.15;4.05;;;10.00;99.90;;;;;;4215617;28;20039;-84
2022/11/26 12:12:30;;;;;;;4.00;3.90;;;10.10;99.90;;;;;;4228995;28;20039;-84
2022/11/26 12:14:58;;;;;;;5.15;4.80;;;10.00;99.90;;;;;;4218464;28;20066;-84
2022/11/26 12:17:35;;;;;;;5.90;5.60;;;10.10;99.90;;;;;;4220285;28;20444;-84
2022/11/26 12:19:59;;;;;;;4.75;4.50;;;10.10;99.90;;;;;;4217496;28;20086;-84
2022/11/26 12:22:29;;;;;;;4.90;4.70;;;10.10;99.90;;;;;;4232210;28;20111;-84
2022/11/26 12:25:01;;;;;;;4.50;4.30;;;10.20;99.90;;;;;;4224952;28;20047;-84
2022/11/26 12:27:39;;;;;;;4.28;4.07;;;10.30;99.90;;;;;;4228771;28;20051;-84
2022/11/26 12:30:17;;;;;;;4.70;4.50;;;10.30;99.90;;;;;;4219229;28;20044;-84
2022/11/26 12:32:42;;;;;;;4.72;4.38;;;10.40;99.90;;;;;;4217795;28;20047;-84
2022/11/26 12:35:09;;;;;;;4.68;4.57;;;10.50;99.90;;;;;;4216719;28;20066;-84
2022/11/26 12:37:32;;;;;;;4.28;3.97;;;10.50;99.90;;;;;;4220416;28;20057;-84
2022/11/26 12:40:01;;;;;;;;;;;10.60;99.90;;;;;;4231539;28;20102;-84
2022/11/26 12:42:32;;;;;;;4.38;4.18;;;10.50;99.90;;;;;;4231182;28;19942;-85
2022/11/26 12:44:55;;;;;;;4.05;3.95;;;10.50;99.90;;;;;;4228084;28;20054;-84